Time;durP1;ratioP1;P1;durP2;ratioP2;P2;SDS_P1;SDS_P2;PMS_P1;PMS_P2;Temp;Humidity;BMP_temperature;BMP_pressure;BME280_temperature;BME280_humidity;BME280_pressure;Samples;Min_cycle;Max_cycle;Signal;HPM_P1;HPM_P2
2024/03/30 00:00:04;;;;;;;2.30;1.90;;;11.50;99.90;;;;;;5074986;28;20190;-72
2024/03/30 00:02:29;;;;;;;1.87;1.37;;;11.50;99.90;;;;;;5075032;28;20556;-72
2024/03/30 00:04:56;;;;;;;2.83;1.80;;;11.50;99.90;;;;;;5052289;28;20504;-71
2024/03/30 00:07:21;;;;;;;2.30;1.60;;;11.50;99.90;;;;;;5053906;28;20174;-71
2024/03/30 00:09:48;;;;;;;2.07;1.77;;;11.50;99.90;;;;;;5061721;28;20435;-71
2024/03/30 00:12:14;;;;;;;1.90;1.60;;;11.50;99.90;;;;;;5070308;28;20257;-72
2024/03/30 00:14:39;;;;;;;2.50;1.63;;;11.60;99.90;;;;;;5075157;28;20499;-72
2024/03/30 00:17:05;;;;;;;1.33;1.23;;;11.60;99.90;;;;;;5074544;28;20227;-71
2024/03/30 00:19:30;;;;;;;2.33;2.00;;;11.60;99.90;;;;;;5075014;28;20186;-71
2024/03/30 00:21:58;;;;;;;2.00;1.80;;;11.60;99.90;;;;;;5075181;28;20225;-71
2024/03/30 00:24:23;;;;;;;2.00;1.77;;;11.60;99.90;;;;;;5057015;28;20208;-72
2024/03/30 00:26:49;;;;;;;2.83;1.60;;;11.60;99.90;;;;;;5074574;28;20785;-71
2024/03/30 00:29:14;;;;;;;2.77;1.90;;;11.60;99.90;;;;;;5074936;28;20689;-72
2024/03/30 00:31:40;;;;;;;2.23;2.03;;;11.70;99.90;;;;;;5074674;28;20175;-71
2024/03/30 00:34:05;;;;;;;2.13;1.23;;;11.60;99.90;;;;;;5074738;28;20177;-71
2024/03/30 00:36:31;;;;;;;2.13;1.93;;;11.60;99.90;;;;;;5074768;28;20190;-71
2024/03/30 00:39:00;;;;;;;3.07;2.80;;;11.60;99.90;;;;;;5074413;28;20198;-71
2024/03/30 00:41:26;;;;;;;2.03;1.90;;;11.50;99.90;;;;;;5074513;28;20170;-71
2024/03/30 00:43:51;;;;;;;2.60;2.10;;;11.40;99.90;;;;;;5074742;28;20411;-71
2024/03/30 00:46:17;;;;;;;2.57;2.37;;;11.40;99.90;;;;;;5074460;28;20271;-71
2024/03/30 00:48:42;;;;;;;3.27;1.87;;;11.30;99.90;;;;;;5074233;28;20525;-71
2024/03/30 00:51:08;;;;;;;4.07;2.40;;;11.10;99.90;;;;;;5074400;28;20594;-71
2024/03/30 00:53:33;;;;;;;1.90;1.77;;;11.00;99.90;;;;;;5074467;28;20537;-71
2024/03/30 00:56:00;;;;;;;2.03;1.80;;;11.00;99.90;;;;;;5074506;28;20675;-71
2024/03/30 00:58:25;;;;;;;3.20;1.93;;;10.90;99.90;;;;;;5074030;28;20538;-71
2024/03/30 01:00:51;;;;;;;2.80;2.37;;;10.80;99.90;;;;;;5074204;28;20412;-72
2024/03/30 01:03:17;;;;;;;3.83;2.50;;;10.70;99.90;;;;;;5074225;28;20194;-71
2024/03/30 01:05:43;;;;;;;3.03;2.30;;;10.70;99.90;;;;;;5074295;28;20409;-71
2024/03/30 01:08:08;;;;;;;3.10;2.17;;;10.60;99.90;;;;;;5073758;28;20185;-71
2024/03/30 01:10:34;;;;;;;2.20;2.00;;;10.50;99.90;;;;;;5070220;28;20222;-72
2024/03/30 01:12:59;;;;;;;2.90;2.63;;;10.40;99.90;;;;;;5068815;28;20186;-71
2024/03/30 01:15:25;;;;;;;12.90;3.33;;;10.40;99.90;;;;;;5073833;28;20182;-71
2024/03/30 01:17:51;;;;;;;4.33;3.60;;;10.30;99.90;;;;;;5073631;28;20626;-71
2024/03/30 01:20:19;;;;;;;3.93;3.53;;;10.30;99.90;;;;;;5056123;28;20202;-71
2024/03/30 01:22:45;;;;;;;4.40;4.00;;;10.20;99.90;;;;;;5073566;28;20229;-71
2024/03/30 01:25:11;;;;;;;6.27;5.10;;;10.10;99.90;;;;;;5073830;28;20494;-71
2024/03/30 01:27:36;;;;;;;5.90;3.90;;;10.10;99.90;;;;;;5055674;28;20193;-71
2024/03/30 01:30:07;;;;;;;7.70;4.70;;;10.10;99.90;;;;;;5073534;28;20931;-71
2024/03/30 01:32:36;;;;;;;5.13;4.63;;;10.00;99.90;;;;;;5073308;28;20186;-71
2024/03/30 01:35:03;;;;;;;6.87;5.73;;;10.00;99.90;;;;;;5073853;28;20462;-71
2024/03/30 01:37:28;;;;;;;6.40;5.43;;;9.90;99.90;;;;;;5055537;28;20432;-71
2024/03/30 01:39:56;;;;;;;5.30;4.80;;;9.90;99.90;;;;;;5055565;28;20471;-71
2024/03/30 01:42:29;;;;;;;9.23;6.07;;;10.00;99.90;;;;;;5069861;28;20288;-71
2024/03/30 01:44:55;;;;;;;6.20;5.60;;;10.00;99.90;;;;;;5071807;28;20420;-71
2024/03/30 01:47:22;;;;;;;4.97;4.47;;;10.00;99.90;;;;;;5073146;28;20412;-71
2024/03/30 01:49:48;;;;;;;7.20;4.40;;;10.00;99.90;;;;;;5073338;28;20186;-71
2024/03/30 01:52:15;;;;;;;8.50;5.10;;;10.00;99.90;;;;;;5073222;28;20460;-71
2024/03/30 01:54:41;;;;;;;8.20;5.27;;;10.00;99.90;;;;;;5073766;28;20462;-71
2024/03/30 01:57:07;;;;;;;4.80;4.03;;;10.00;99.90;;;;;;5072908;28;20405;-71
2024/03/30 01:59:34;;;;;;;7.17;6.37;;;10.00;99.90;;;;;;5073008;28;20435;-71
2024/03/30 02:02:00;;;;;;;10.90;7.60;;;10.00;99.90;;;;;;5072850;28;20455;-71
2024/03/30 02:04:26;;;;;;;7.17;6.20;;;9.90;99.90;;;;;;5073063;28;20405;-71
2024/03/30 02:06:52;;;;;;;11.60;7.63;;;10.00;99.90;;;;;;5072339;28;20462;-71
2024/03/30 02:09:18;;;;;;;7.50;6.67;;;9.90;99.90;;;;;;5072331;28;20428;-71
2024/03/30 02:11:44;;;;;;;8.23;6.67;;;10.00;99.90;;;;;;5069254;28;20665;-71
2024/03/30 02:14:09;;;;;;;8.80;7.00;;;10.00;99.90;;;;;;5072566;28;20181;-71
2024/03/30 02:16:36;;;;;;;8.93;7.40;;;10.00;99.90;;;;;;5072846;28;20247;-71
2024/03/30 02:19:05;;;;;;;6.60;5.63;;;10.00;99.90;;;;;;5072630;28;20218;-71
2024/03/30 02:21:31;;;;;;;9.37;6.57;;;10.00;99.90;;;;;;5072641;28;20416;-71
2024/03/30 02:23:57;;;;;;;8.13;7.17;;;10.00;99.90;;;;;;5072712;28;20924;-71
2024/03/30 02:26:23;;;;;;;11.90;7.00;;;10.00;99.90;;;;;;5072800;28;20429;-71
2024/03/30 02:28:52;;;;;;;10.50;8.23;;;10.00;99.90;;;;;;5072364;28;20591;-72
2024/03/30 02:31:18;;;;;;;8.63;7.23;;;10.00;99.90;;;;;;5072420;28;20308;-71
2024/03/30 02:33:44;;;;;;;10.73;8.33;;;10.00;99.90;;;;;;5072582;28;20453;-71
2024/03/30 02:36:10;;;;;;;11.53;7.87;;;10.00;99.90;;;;;;5072481;28;20405;-71
2024/03/30 02:38:35;;;;;;;10.53;7.50;;;10.00;99.90;;;;;;5072037;28;20526;-71
2024/03/30 02:41:01;;;;;;;10.80;8.00;;;9.90;99.90;;;;;;5066106;28;20171;-72
2024/03/30 02:43:27;;;;;;;14.37;9.20;;;9.90;99.90;;;;;;5072039;28;20225;-71
2024/03/30 02:45:52;;;;;;;11.17;8.10;;;9.90;99.90;;;;;;5062534;28;20169;-71
2024/03/30 02:48:18;;;;;;;9.30;7.47;;;9.80;99.90;;;;;;5072054;28;20534;-71
2024/03/30 02:50:43;;;;;;;9.40;7.47;;;9.80;99.90;;;;;;5072459;28;20162;-71
2024/03/30 02:53:09;;;;;;;10.50;7.83;;;9.80;99.90;;;;;;5054417;28;20228;-71
2024/03/30 02:55:34;;;;;;;11.53;8.17;;;9.70;99.90;;;;;;5072114;28;20162;-71
2024/03/30 02:58:00;;;;;;;11.47;7.73;;;9.70;99.90;;;;;;5071853;28;20250;-71
2024/03/30 03:00:26;;;;;;;10.60;7.67;;;9.70;99.90;;;;;;5072080;28;20239;-71
2024/03/30 03:02:52;;;;;;;12.47;8.07;;;9.70;99.90;;;;;;5071862;28;20267;-71
2024/03/30 03:05:18;;;;;;;9.67;6.70;;;9.70;99.90;;;;;;5072218;28;20194;-71
2024/03/30 03:07:43;;;;;;;18.23;7.70;;;9.70;99.90;;;;;;5071888;28;20408;-71
2024/03/30 03:10:09;;;;;;;13.83;7.87;;;9.60;99.90;;;;;;5069899;28;20312;-71
2024/03/30 03:12:34;;;;;;;7.80;6.63;;;9.60;99.90;;;;;;5067443;28;20198;-71
2024/03/30 03:15:04;;;;;;;8.37;6.30;;;9.60;99.90;;;;;;5071862;28;20170;-71
2024/03/30 03:17:34;;;;;;;10.77;7.30;;;9.70;99.90;;;;;;5071855;28;20173;-71
2024/03/30 03:20:00;;;;;;;12.00;7.10;;;9.70;99.90;;;;;;5071901;28;20423;-71
2024/03/30 03:22:26;;;;;;;9.53;7.13;;;9.60;99.90;;;;;;5070920;28;20818;-71
2024/03/30 03:24:51;;;;;;;10.80;7.27;;;9.50;99.90;;;;;;5071794;28;20401;-71
2024/03/30 03:27:17;;;;;;;7.47;6.67;;;9.60;99.90;;;;;;5071531;28;20158;-71
2024/03/30 03:29:42;;;;;;;9.37;6.13;;;9.60;99.90;;;;;;5071742;28;20178;-71
2024/03/30 03:32:08;;;;;;;9.50;6.30;;;9.60;99.90;;;;;;5071723;28;20545;-71
2024/03/30 03:34:33;;;;;;;10.40;6.20;;;9.60;99.90;;;;;;5071839;28;20174;-71
2024/03/30 03:36:59;;;;;;;9.67;6.43;;;9.60;99.90;;;;;;5071538;28;20165;-71
2024/03/30 03:39:24;;;;;;;7.57;6.40;;;9.50;99.90;;;;;;5053487;28;20682;-71
2024/03/30 03:41:50;;;;;;;7.03;6.00;;;9.50;99.90;;;;;;5064992;28;20416;-71
2024/03/30 03:44:15;;;;;;;9.03;6.00;;;9.60;99.90;;;;;;5053563;28;20170;-71
2024/03/30 03:46:42;;;;;;;9.60;6.57;;;9.60;99.90;;;;;;5071512;28;20659;-71
2024/03/30 03:49:08;;;;;;;7.20;5.50;;;9.70;99.90;;;;;;5071654;28;20261;-71
2024/03/30 03:51:33;;;;;;;5.77;4.80;;;9.70;99.90;;;;;;5071514;28;20507;-71
2024/03/30 03:53:59;;;;;;;6.20;5.40;;;9.70;99.90;;;;;;5071706;28;20173;-71
2024/03/30 03:56:24;;;;;;;10.53;6.30;;;9.70;99.90;;;;;;5071424;28;20607;-71
2024/03/30 03:58:50;;;;;;;8.53;6.83;;;9.70;99.90;;;;;;5071196;28;20229;-71
2024/03/30 04:01:16;;;;;;;5.97;5.23;;;9.70;99.90;;;;;;5071556;28;20249;-71
2024/03/30 04:03:42;;;;;;;9.53;6.63;;;9.60;99.90;;;;;;5071314;28;20285;-71
2024/03/30 04:06:11;;;;;;;10.40;7.47;;;9.70;99.90;;;;;;5071785;28;20415;-71
2024/03/30 04:08:37;;;;;;;10.13;6.07;;;9.60;99.90;;;;;;5071055;28;20852;-71
2024/03/30 04:11:04;;;;;;;10.50;6.73;;;9.60;99.90;;;;;;5067719;28;20459;-71
2024/03/30 04:13:30;;;;;;;9.20;6.30;;;9.60;99.90;;;;;;5053256;28;20205;-71
2024/03/30 04:16:04;;;;;;;8.27;6.93;;;9.60;99.90;;;;;;5071254;28;20931;-71
2024/03/30 04:18:30;;;;;;;8.27;6.00;;;9.60;99.90;;;;;;5066994;28;20262;-71
2024/03/30 04:20:57;;;;;;;10.40;7.77;;;9.50;99.90;;;;;;5058002;28;20417;-71
2024/03/30 04:23:22;;;;;;;9.33;6.73;;;9.50;99.90;;;;;;5051202;28;20199;-72
2024/03/30 04:25:58;;;;;;;12.90;7.10;;;9.40;99.90;;;;;;5051215;28;20407;-71
2024/03/30 04:28:24;;;;;;;11.90;7.13;;;9.30;99.90;;;;;;5033058;28;20171;-76
2024/03/30 04:30:57;;;;;;;8.20;7.03;;;9.30;99.90;;;;;;5051359;28;20500;-71
2024/03/30 04:33:22;;;;;;;8.47;6.30;;;9.30;99.90;;;;;;5053359;28;20229;-71
2024/03/30 04:35:55;;;;;;;11.20;7.00;;;9.30;99.90;;;;;;5054979;28;20417;-72
2024/03/30 04:38:21;;;;;;;11.03;8.23;;;9.40;99.90;;;;;;5054469;28;20646;-71
2024/03/30 04:40:56;;;;;;;11.20;7.40;;;9.40;99.90;;;;;;5039323;28;20927;-71
2024/03/30 04:43:21;;;;;;;10.33;6.23;;;9.40;99.90;;;;;;5074228;28;20467;-71
2024/03/30 04:45:47;;;;;;;8.80;6.80;;;9.40;99.90;;;;;;5074267;28;20401;-71
2024/03/30 04:48:12;;;;;;;9.40;7.27;;;9.40;99.90;;;;;;5074308;28;20163;-71
2024/03/30 04:50:38;;;;;;;11.87;6.90;;;9.40;99.90;;;;;;5074507;28;20186;-71
2024/03/30 04:53:03;;;;;;;9.50;6.97;;;9.30;99.90;;;;;;5074467;28;20197;-71
2024/03/30 04:55:29;;;;;;;9.17;6.77;;;9.30;99.90;;;;;;5074508;28;20166;-71
2024/03/30 04:57:54;;;;;;;9.27;6.87;;;9.40;99.90;;;;;;5074204;28;20177;-71
2024/03/30 05:00:20;;;;;;;9.93;8.07;;;9.40;99.90;;;;;;5074311;28;20637;-71
2024/03/30 05:02:45;;;;;;;13.60;8.10;;;9.30;99.90;;;;;;5074140;28;20361;-71
2024/03/30 05:05:11;;;;;;;10.27;8.03;;;9.40;99.90;;;;;;5074404;28;20507;-71
2024/03/30 05:07:36;;;;;;;12.73;7.80;;;9.30;99.90;;;;;;5074071;28;20201;-71
2024/03/30 05:10:02;;;;;;;9.73;6.70;;;9.30;99.90;;;;;;5073370;28;20261;-71
2024/03/30 05:12:27;;;;;;;12.67;8.33;;;9.30;99.90;;;;;;5053270;28;20180;-71
2024/03/30 05:14:53;;;;;;;12.60;7.73;;;9.30;99.90;;;;;;5074366;28;20174;-71
2024/03/30 05:17:18;;;;;;;9.33;7.30;;;9.30;99.90;;;;;;5072916;28;20645;-72
2024/03/30 05:22:28;;;;;;;14.87;7.80;;;9.20;99.90;;;;;;5066091;28;20311;-71
2024/03/30 05:24:53;;;;;;;9.87;7.03;;;9.30;99.90;;;;;;5073982;28;20408;-71
2024/03/30 05:27:19;;;;;;;7.23;6.53;;;9.30;99.90;;;;;;5073442;28;20199;-71
2024/03/30 05:29:44;;;;;;;10.40;7.83;;;9.30;99.90;;;;;;5073860;28;20219;-71
2024/03/30 05:32:10;;;;;;;11.93;7.80;;;9.30;99.90;;;;;;5074034;28;20173;-71
2024/03/30 05:34:35;;;;;;;13.60;6.50;;;9.40;99.90;;;;;;5074080;28;20241;-71
2024/03/30 05:37:03;;;;;;;11.20;6.80;;;9.40;99.90;;;;;;5072312;28;20166;-71
2024/03/30 05:39:29;;;;;;;14.87;9.33;;;9.40;99.90;;;;;;5073662;28;20269;-71
2024/03/30 05:41:55;;;;;;;13.17;8.80;;;9.40;99.90;;;;;;5071622;28;20555;-71
2024/03/30 05:44:20;;;;;;;12.97;8.00;;;9.50;99.90;;;;;;5068488;28;20202;-71
2024/03/30 05:46:46;;;;;;;11.10;7.80;;;9.50;99.90;;;;;;5073193;28;20190;-71
2024/03/30 05:49:11;;;;;;;16.03;8.30;;;9.60;99.90;;;;;;5073331;28;20231;-71
2024/03/30 05:51:37;;;;;;;17.37;9.40;;;9.60;99.90;;;;;;5073272;28;20184;-72
2024/03/30 05:54:03;;;;;;;15.53;9.20;;;9.70;99.90;;;;;;5055361;28;20509;-71
2024/03/30 05:56:29;;;;;;;13.07;8.03;;;9.70;99.90;;;;;;5073281;28;20638;-71
2024/03/30 05:58:54;;;;;;;12.87;9.33;;;9.80;99.90;;;;;;5072812;28;20507;-71
2024/03/30 06:01:20;;;;;;;13.50;9.03;;;9.80;99.90;;;;;;5073206;28;20241;-71
2024/03/30 06:03:46;;;;;;;13.70;8.27;;;9.80;99.90;;;;;;5073003;28;20259;-71
2024/03/30 06:06:11;;;;;;;19.77;10.57;;;9.90;99.90;;;;;;5073137;28;20227;-71
2024/03/30 06:08:36;;;;;;;14.37;10.07;;;9.90;99.90;;;;;;5072796;28;20777;-71
2024/03/30 06:11:02;;;;;;;18.30;8.60;;;10.00;99.90;;;;;;5064783;28;20171;-72
2024/03/30 06:13:28;;;;;;;12.67;9.50;;;10.10;99.90;;;;;;5069861;28;20208;-71
2024/03/30 06:16:03;;;;;;;11.37;7.60;;;10.10;99.90;;;;;;5072694;28;20172;-71
2024/03/30 06:18:29;;;;;;;16.30;10.50;;;10.20;99.90;;;;;;5067311;28;20198;-71
2024/03/30 06:20:55;;;;;;;17.80;10.90;;;10.20;99.90;;;;;;5072721;28;20458;-71
2024/03/30 06:23:20;;;;;;;15.30;8.60;;;10.20;99.90;;;;;;5072766;28;20444;-71
2024/03/30 06:25:46;;;;;;;11.27;7.60;;;10.20;99.90;;;;;;5072704;28;20247;-71
2024/03/30 06:28:12;;;;;;;11.00;7.63;;;10.30;99.90;;;;;;5072250;28;20691;-71
2024/03/30 06:30:37;;;;;;;11.10;7.83;;;10.30;99.90;;;;;;5071648;28;20186;-72
2024/03/30 06:33:05;;;;;;;12.80;7.63;;;10.40;99.90;;;;;;5065096;28;20654;-71
2024/03/30 06:35:32;;;;;;;18.80;10.10;;;10.50;99.90;;;;;;5059482;28;20174;-72
2024/03/30 06:37:58;;;;;;;14.20;8.37;;;10.50;99.90;;;;;;5063394;28;20422;-71
2024/03/30 06:45:52;;;;;;;15.10;9.07;;;10.80;99.90;;;;;;5072417;28;20407;-70
2024/03/30 06:48:17;;;;;;;10.70;7.20;;;10.90;99.90;;;;;;5073053;28;20802;-70
2024/03/30 06:50:43;;;;;;;18.83;7.47;;;11.10;99.90;;;;;;5073299;28;20712;-70
2024/03/30 06:53:08;;;;;;;13.13;8.67;;;11.20;99.90;;;;;;5073698;28;20265;-70
2024/03/30 06:55:34;;;;;;;16.13;9.27;;;11.30;99.90;;;;;;5073526;28;20167;-70
2024/03/30 06:57:59;;;;;;;14.93;9.20;;;11.40;99.90;;;;;;5055189;28;20170;-70
2024/03/30 07:00:25;;;;;;;12.57;9.57;;;11.50;99.90;;;;;;5073482;28;20201;-70
2024/03/30 07:02:50;;;;;;;13.67;9.40;;;11.50;99.90;;;;;;5055433;28;20569;-70
2024/03/30 07:05:16;;;;;;;17.60;9.80;;;11.70;99.90;;;;;;5073669;28;20249;-70
2024/03/30 07:07:41;;;;;;;13.90;8.57;;;11.80;99.90;;;;;;5073132;28;20528;-70
2024/03/30 07:10:08;;;;;;;14.80;8.30;;;11.70;99.90;;;;;;5072044;28;20182;-71
2024/03/30 07:12:34;;;;;;;11.90;8.07;;;11.80;99.90;;;;;;5065616;28;20178;-71
2024/03/30 07:14:59;;;;;;;16.90;9.57;;;11.70;99.90;;;;;;5071954;28;20407;-71
2024/03/30 07:17:27;;;;;;;14.90;8.40;;;11.60;99.90;;;;;;5071769;28;20535;-71
2024/03/30 07:19:52;;;;;;;11.03;8.27;;;11.70;99.90;;;;;;5071876;28;20190;-71
2024/03/30 07:22:18;;;;;;;11.77;9.37;;;11.70;99.90;;;;;;5071555;28;20448;-71
2024/03/30 07:24:46;;;;;;;11.17;7.80;;;11.70;99.90;;;;;;5072029;28;20166;-71
2024/03/30 07:27:12;;;;;;;14.73;8.30;;;11.80;99.90;;;;;;5071737;28;20159;-71
2024/03/30 07:29:38;;;;;;;12.00;7.53;;;11.90;99.90;;;;;;5071823;28;20503;-71
2024/03/30 07:32:03;;;;;;;9.20;7.50;;;12.00;99.90;;;;;;5071779;28;20166;-71
2024/03/30 07:34:29;;;;;;;8.03;7.10;;;12.10;99.90;;;;;;5071700;28;20162;-72
2024/03/30 07:36:55;;;;;;;8.57;7.67;;;12.20;99.90;;;;;;5071510;28;20250;-72
2024/03/30 07:39:20;;;;;;;9.90;7.60;;;12.20;99.90;;;;;;5071731;28;20538;-71
2024/03/30 07:41:46;;;;;;;10.57;6.77;;;12.10;99.90;;;;;;5071749;28;20170;-71
2024/03/30 07:44:11;;;;;;;12.37;7.87;;;12.10;99.90;;;;;;5071787;28;20536;-71
2024/03/30 07:46:37;;;;;;;27.47;8.83;;;12.20;99.90;;;;;;5071932;28;20166;-71
2024/03/30 07:49:04;;;;;;;12.63;7.27;;;12.30;99.90;;;;;;5071370;28;20174;-71
2024/03/30 07:51:29;;;;;;;23.50;6.83;;;12.40;99.90;;;;;;5067281;28;20185;-71
2024/03/30 07:53:55;;;;;;;10.10;6.20;;;12.50;99.90;;;;;;5071540;28;20879;-71
2024/03/30 07:56:24;;;;;;;8.73;6.53;;;12.70;99.90;;;;;;5071452;28;20174;-71
2024/03/30 07:58:49;;;;;;;4.70;4.20;;;12.80;99.90;;;;;;5071165;28;20277;-71
2024/03/30 08:01:15;;;;;;;6.67;5.00;;;13.10;99.90;;;;;;5071468;28;20432;-71
2024/03/30 08:03:40;;;;;;;3.97;3.67;;;13.20;99.90;;;;;;5071366;28;20729;-71
2024/03/30 08:06:06;;;;;;;8.83;3.17;;;13.40;99.90;;;;;;5071274;28;20239;-71
2024/03/30 08:08:32;;;;;;;6.40;2.40;;;13.50;99.90;;;;;;5074173;28;20249;-71
2024/03/30 08:10:58;;;;;;;6.00;2.67;;;13.60;99.90;;;;;;5070787;28;20975;-71
2024/03/30 08:13:23;;;;;;;2.43;2.23;;;13.80;99.90;;;;;;5073908;28;20257;-71
2024/03/30 08:15:49;;;;;;;2.57;2.37;;;14.00;99.90;;;;;;5075171;28;20422;-71
2024/03/30 08:18:14;;;;;;;4.13;2.07;;;14.10;99.90;;;;;;5074885;28;20196;-71
2024/03/30 08:20:40;;;;;;;3.53;3.23;;;14.40;99.90;;;;;;5074884;28;20704;-71
2024/03/30 08:23:06;;;;;;;4.20;2.90;;;14.80;99.90;;;;;;5074996;28;20194;-71
2024/03/30 08:25:35;;;;;;;4.87;2.10;;;15.10;99.90;;;;;;5075071;28;20487;-71
2024/03/30 08:28:04;;;;;;;4.40;2.07;;;15.40;99.90;;;;;;5075231;28;20645;-71
2024/03/30 08:30:30;;;;;;;2.80;2.43;;;15.50;99.90;;;;;;5075222;28;20424;-71
2024/03/30 08:32:57;;;;;;;3.27;2.37;;;15.50;99.90;;;;;;5075464;28;20409;-71
2024/03/30 08:35:22;;;;;;;2.23;2.00;;;15.60;99.90;;;;;;5074947;28;20401;-71
2024/03/30 08:37:48;;;;;;;2.07;1.97;;;15.90;99.90;;;;;;5074745;28;20437;-71
2024/03/30 08:40:14;;;;;;;3.30;1.97;;;16.10;99.90;;;;;;5074812;28;20194;-71
2024/03/30 08:42:39;;;;;;;3.40;2.20;;;16.20;99.90;;;;;;5067981;28;20568;-71
2024/03/30 08:45:05;;;;;;;9.70;2.63;;;16.40;99.90;;;;;;5074481;28;20178;-71
2024/03/30 08:47:31;;;;;;;5.33;2.63;;;16.60;99.90;;;;;;5074282;28;20155;-71
2024/03/30 08:49:57;;;;;;;2.73;2.00;;;16.80;99.90;;;;;;5074487;28;20420;-71
2024/03/30 08:52:24;;;;;;;6.73;3.27;;;17.00;99.90;;;;;;5074542;28;20931;-69
2024/03/30 08:54:49;;;;;;;3.80;2.50;;;17.20;99.90;;;;;;5074763;28;20170;-70
2024/03/30 08:57:15;;;;;;;3.60;1.80;;;17.10;99.90;;;;;;5061861;28;20429;-70
2024/03/30 08:59:40;;;;;;;3.60;2.10;;;17.00;99.90;;;;;;5070454;28;20216;-71
2024/03/30 09:02:06;;;;;;;1.97;1.73;;;17.10;99.90;;;;;;5074136;28;20703;-70
2024/03/30 09:04:32;;;;;;;6.17;1.83;;;17.40;99.90;;;;;;5074010;28;20185;-70
2024/03/30 09:06:57;;;;;;;3.93;1.70;;;17.80;99.90;;;;;;5071298;28;20275;-71
2024/03/30 09:09:23;;;;;;;5.87;3.03;;;18.00;99.90;;;;;;5073872;28;20516;-70
2024/03/30 09:11:48;;;;;;;3.97;1.93;;;18.00;99.90;;;;;;5049454;28;20167;-71
2024/03/30 09:14:14;;;;;;;3.00;2.23;;;17.90;99.90;;;;;;5067649;28;20185;-71
2024/03/30 09:16:39;;;;;;;2.63;1.90;;;17.80;99.90;;;;;;5074327;28;20219;-71
2024/03/30 09:19:05;;;;;;;4.13;1.97;;;17.60;99.90;;;;;;5061778;28;20198;-70
2024/03/30 09:21:30;;;;;;;5.90;4.53;;;17.40;99.90;;;;;;5057524;28;20177;-71
2024/03/30 09:23:56;;;;;;;5.13;2.13;;;17.20;99.90;;;;;;5073743;28;20197;-70
2024/03/30 09:26:21;;;;;;;9.23;2.20;;;16.80;99.90;;;;;;5074056;28;20193;-70
2024/03/30 09:28:47;;;;;;;1.90;1.47;;;16.60;99.90;;;;;;5073541;28;20186;-70
2024/03/30 09:31:12;;;;;;;4.40;2.03;;;16.40;99.90;;;;;;5073697;28;20162;-70
2024/03/30 09:33:38;;;;;;;9.77;2.57;;;16.30;99.90;;;;;;5073711;28;20185;-71
2024/03/30 09:36:12;;;;;;;9.50;2.23;;;16.20;99.90;;;;;;5073599;28;20174;-70
2024/03/30 09:38:38;;;;;;;6.87;1.93;;;16.30;99.90;;;;;;5065405;28;20231;-70
2024/03/30 09:41:07;;;;;;;7.90;2.50;;;16.50;99.90;;;;;;5073550;28;20397;-70
2024/03/30 09:43:34;;;;;;;5.10;1.63;;;16.80;99.90;;;;;;5073736;28;20684;-71
2024/03/30 09:46:00;;;;;;;3.73;1.60;;;17.20;99.90;;;;;;5073649;28;20432;-70
2024/03/30 09:48:27;;;;;;;3.23;1.73;;;17.50;99.90;;;;;;5073127;28;20404;-71
2024/03/30 09:50:53;;;;;;;3.00;1.77;;;17.90;99.90;;;;;;5055393;28;20444;-70
2024/03/30 09:53:19;;;;;;;6.60;1.90;;;18.50;99.90;;;;;;5061017;28;20935;-71
2024/03/30 09:55:46;;;;;;;2.97;1.90;;;18.90;99.90;;;;;;5073534;28;20411;-70
2024/03/30 09:58:14;;;;;;;5.07;2.03;;;19.40;99.90;;;;;;5073096;28;20412;-70
2024/03/30 10:00:41;;;;;;;11.80;2.40;;;19.80;99.90;;;;;;5073298;28;20471;-68
2024/03/30 10:03:06;;;;;;;8.20;2.33;;;20.10;99.90;;;;;;5073208;28;20452;-69
2024/03/30 10:05:38;;;;;;;12.53;1.97;;;20.60;99.90;;;;;;5073080;28;20761;-71
2024/03/30 10:08:06;;;;;;;3.80;1.87;;;21.10;99.90;;;;;;5073002;28;20209;-71
2024/03/30 10:10:32;;;;;;;7.70;2.00;;;21.80;99.90;;;;;;5072336;28;20416;-70
2024/03/30 10:13:05;;;;;;;12.70;2.40;;;22.50;97.60;;;;;;5067449;28;20446;-72
2024/03/30 10:15:33;;;;;;;15.97;2.93;;;22.60;93.30;;;;;;5072018;28;20177;-71
2024/03/30 10:17:59;;;;;;;10.33;2.00;;;22.40;90.40;;;;;;5067045;28;20738;-70
2024/03/30 10:20:25;;;;;;;4.60;1.70;;;21.90;90.80;;;;;;5073237;28;20535;-70
2024/03/30 10:22:50;;;;;;;4.90;2.87;;;21.40;90.70;;;;;;5072551;28;20198;-71
2024/03/30 10:25:17;;;;;;;7.07;2.47;;;20.80;91.80;;;;;;5072846;28;20220;-71
2024/03/30 10:27:42;;;;;;;6.83;1.90;;;20.40;93.20;;;;;;5072450;28;20224;-70
2024/03/30 10:30:08;;;;;;;10.77;2.70;;;20.10;94.30;;;;;;5072099;28;20915;-70
2024/03/30 10:32:39;;;;;;;11.23;2.30;;;19.70;96.00;;;;;;5072334;28;20261;-70
2024/03/30 10:35:07;;;;;;;10.40;2.63;;;19.40;98.00;;;;;;5065278;28;20421;-69
2024/03/30 10:37:34;;;;;;;5.60;2.40;;;19.10;99.80;;;;;;5066838;28;20412;-69
2024/03/30 10:40:10;;;;;;;6.83;2.53;;;18.90;99.90;;;;;;5072160;28;20583;-69
2024/03/30 10:42:39;;;;;;;12.73;2.63;;;18.60;99.90;;;;;;5072171;28;20458;-69
2024/03/30 10:45:06;;;;;;;11.70;2.20;;;18.60;99.90;;;;;;5072290;28;20403;-69
2024/03/30 10:47:34;;;;;;;13.00;2.67;;;18.50;99.90;;;;;;5072102;28;20404;-69
2024/03/30 10:50:00;;;;;;;6.87;2.20;;;18.40;99.90;;;;;;5072212;28;20432;-69
2024/03/30 10:52:26;;;;;;;7.33;2.23;;;18.40;99.90;;;;;;5072155;28;20436;-69
2024/03/30 10:54:55;;;;;;;8.60;2.47;;;18.30;99.90;;;;;;5072226;28;20416;-69
2024/03/30 10:57:25;;;;;;;15.93;3.00;;;18.10;99.90;;;;;;5053991;28;20292;-69
2024/03/30 10:59:52;;;;;;;26.40;3.47;;;18.10;99.90;;;;;;5072412;28;20930;-69
2024/03/30 11:02:22;;;;;;;9.60;2.00;;;18.10;99.90;;;;;;5054141;28;20543;-68
2024/03/30 11:04:52;;;;;;;20.50;4.47;;;18.20;99.90;;;;;;5072340;28;20433;-69
2024/03/30 11:07:18;;;;;;;21.30;4.17;;;18.20;97.00;;;;;;5071798;28;20491;-69
2024/03/30 11:09:44;;;;;;;15.87;3.73;;;18.10;94.90;;;;;;5054157;28;20570;-69
2024/03/30 11:12:10;;;;;;;22.30;3.20;;;18.20;96.00;;;;;;5065991;28;20645;-69
2024/03/30 11:14:36;;;;;;;14.23;3.33;;;18.20;95.40;;;;;;5071804;28;20440;-69
2024/03/30 11:17:14;;;;;;;15.50;4.30;;;18.30;92.50;;;;;;5071487;28;20501;-69
2024/03/30 11:20:02;;;;;;;8.77;3.43;;;18.40;92.50;;;;;;5071671;28;20185;-69
2024/03/30 11:22:35;;;;;;;23.93;3.97;;;18.40;92.30;;;;;;5071025;28;20798;-70
2024/03/30 11:25:04;;;;;;;23.70;5.50;;;18.40;90.50;;;;;;5059623;28;20401;-68
2024/03/30 11:27:32;;;;;;;14.77;4.23;;;18.30;90.80;;;;;;5069647;28;20938;-68
2024/03/30 11:30:36;;;;;;;34.43;3.80;;;18.20;90.80;;;;;;5071562;28;20829;-69
2024/03/30 11:33:20;;;;;;;16.17;3.20;;;18.10;90.20;;;;;;5066129;28;20453;-69
2024/03/30 11:36:28;;;;;;;18.40;5.00;;;18.00;89.40;;;;;;5072077;28;20403;-69
2024/03/30 11:39:01;;;;;;;27.03;4.60;;;18.00;90.90;;;;;;4972379;28;20451;-69
2024/03/30 11:41:27;;;;;;;16.03;3.20;;;17.90;90.10;;;;;;4987900;28;20455;-69
2024/03/30 11:44:09;;;;;;;22.20;4.87;;;17.90;89.50;;;;;;5029802;28;20460;-69
2024/03/30 11:46:38;;;;;;;16.60;3.50;;;17.90;90.20;;;;;;5075728;28;20177;-69
2024/03/30 11:49:06;;;;;;;10.33;3.60;;;17.90;90.00;;;;;;5075275;28;20802;-69
2024/03/30 11:51:32;;;;;;;25.10;4.30;;;17.70;88.60;;;;;;5075708;28;20427;-70
2024/03/30 11:53:58;;;;;;;23.83;3.00;;;17.70;90.10;;;;;;5075716;28;20479;-69
2024/03/30 11:56:33;;;;;;;16.10;3.63;;;17.60;90.60;;;;;;5057743;28;20190;-70
2024/03/30 11:59:00;;;;;;;24.87;3.70;;;17.60;89.50;;;;;;5075465;28;20184;-69
2024/03/30 12:01:26;;;;;;;14.20;3.60;;;17.60;89.80;;;;;;5075359;28;20503;-69
2024/03/30 12:03:52;;;;;;;15.43;4.43;;;17.60;89.50;;;;;;5075582;28;20536;-70
2024/03/30 12:06:19;;;;;;;25.80;3.60;;;17.60;89.20;;;;;;5057587;28;20721;-69
2024/03/30 12:08:47;;;;;;;11.97;3.97;;;17.60;89.10;;;;;;5069069;28;20440;-70
2024/03/30 12:11:14;;;;;;;19.60;2.23;;;17.60;85.40;;;;;;5063530;28;20944;-69
2024/03/30 12:13:40;;;;;;;13.00;2.67;;;17.60;87.10;;;;;;5067657;28;20408;-69
2024/03/30 12:16:06;;;;;;;10.40;3.37;;;17.60;87.20;;;;;;5075240;28;20408;-69
2024/03/30 12:18:32;;;;;;;11.97;2.63;;;17.50;85.20;;;;;;5075081;28;20166;-70
2024/03/30 12:20:58;;;;;;;9.00;3.30;;;17.60;87.20;;;;;;5075240;28;20407;-70
2024/03/30 12:23:24;;;;;;;10.50;2.97;;;17.60;87.70;;;;;;5075130;28;20443;-70
2024/03/30 12:25:51;;;;;;;17.43;3.03;;;17.60;87.70;;;;;;5075036;28;20537;-69
2024/03/30 12:28:18;;;;;;;8.67;2.67;;;17.70;88.60;;;;;;5073122;28;20420;-69
2024/03/30 12:30:45;;;;;;;7.17;3.13;;;17.70;86.00;;;;;;5074584;28;20416;-69
2024/03/30 12:33:11;;;;;;;16.97;3.10;;;17.80;87.00;;;;;;5060420;28;20500;-69
2024/03/30 12:35:36;;;;;;;12.17;3.30;;;17.90;86.80;;;;;;5074808;28;20447;-67
2024/03/30 12:38:03;;;;;;;10.80;3.10;;;18.00;87.00;;;;;;5073848;28;20827;-69
2024/03/30 12:40:34;;;;;;;13.77;2.77;;;18.00;85.40;;;;;;5074478;28;20243;-69
2024/03/30 12:43:00;;;;;;;13.77;2.67;;;18.10;86.00;;;;;;5056735;28;20453;-69
2024/03/30 12:45:26;;;;;;;8.23;2.60;;;18.20;85.90;;;;;;5045655;28;20512;-69
2024/03/30 12:47:52;;;;;;;16.77;2.27;;;18.40;88.00;;;;;;5073070;28;20423;-69
2024/03/30 12:50:18;;;;;;;14.70;2.30;;;18.50;84.70;;;;;;5061188;28;20783;-69